createdAt,value
2022-11-05T00:01:42.847Z,10.50
2022-11-05T00:04:30.966Z,10.51
2022-11-05T00:07:26.702Z,10.53
2022-11-05T00:10:03.661Z,10.51
2022-11-05T00:12:49.790Z,10.51
2022-11-05T00:15:35.402Z,10.52
2022-11-05T00:18:03.354Z,10.53
2022-11-05T00:20:31.295Z,10.53
2022-11-05T00:23:20.173Z,10.53
2022-11-05T00:25:56.952Z,10.55
2022-11-05T00:28:25.102Z,10.55
2022-11-05T00:30:53.384Z,10.54
2022-11-05T00:33:21.769Z,10.55
2022-11-05T00:35:49.744Z,10.55
2022-11-05T00:38:17.731Z,10.56
2022-11-05T00:40:46.390Z,10.57
2022-11-05T00:43:33.482Z,10.57
2022-11-05T00:46:01.410Z,10.58
2022-11-05T00:48:46.719Z,10.58
2022-11-05T00:51:14.682Z,10.57
2022-11-05T00:53:42.689Z,10.58
2022-11-05T00:56:10.879Z,10.57
2022-11-05T00:58:40.272Z,10.57
2022-11-05T01:01:08.292Z,10.56
2022-11-05T01:03:38.464Z,10.57
2022-11-05T01:06:11.470Z,10.60
2022-11-05T01:08:40.024Z,10.61
2022-11-05T01:11:11.573Z,10.62
2022-11-05T01:13:41.869Z,10.64
2022-11-05T01:16:11.409Z,10.65
2022-11-05T01:18:39.732Z,10.65
2022-11-05T01:21:15.923Z,10.66
2022-11-05T01:23:43.921Z,10.66
2022-11-05T01:26:11.891Z,10.65
2022-11-05T01:28:41.404Z,10.65
2022-11-05T01:31:09.567Z,10.65
2022-11-05T01:33:37.573Z,10.65
2022-11-05T01:36:06.536Z,10.66
2022-11-05T01:38:34.602Z,10.67
2022-11-05T01:41:02.571Z,10.67
2022-11-05T01:43:49.998Z,10.69
2022-11-05T01:46:21.242Z,10.69
2022-11-05T01:48:51.236Z,10.70
2022-11-05T01:51:23.256Z,10.70
2022-11-05T01:53:54.905Z,10.70
2022-11-05T01:56:27.570Z,10.70
2022-11-05T01:59:04.760Z,10.69
2022-11-05T02:01:33.225Z,10.68
2022-11-05T02:04:11.366Z,10.66
2022-11-05T02:06:46.167Z,10.65
2022-11-05T02:09:20.213Z,10.65
2022-11-05T02:11:48.667Z,10.66
2022-11-05T02:14:18.390Z,10.66
2022-11-05T02:16:52.082Z,10.67
2022-11-05T02:20:00.534Z,10.69
2022-11-05T02:22:48.580Z,10.70
2022-11-05T02:25:43.056Z,10.71
2022-11-05T02:28:38.536Z,10.71
2022-11-05T02:31:13.739Z,10.72
2022-11-05T02:33:49.333Z,10.72
2022-11-05T02:36:33.242Z,10.73
2022-11-05T02:39:13.142Z,10.73
2022-11-05T02:41:54.743Z,10.73
2022-11-05T02:44:30.250Z,10.74
2022-11-05T02:47:08.501Z,10.74
2022-11-05T02:49:45.304Z,10.75
2022-11-05T02:52:21.609Z,10.75
2022-11-05T02:54:59.687Z,10.76
2022-11-05T02:57:30.453Z,10.75
2022-11-05T03:00:02.119Z,10.75
2022-11-05T03:02:31.957Z,10.76
2022-11-05T03:05:00.696Z,10.76
2022-11-05T03:07:46.131Z,10.77
2022-11-05T03:10:26.434Z,10.77
2022-11-05T03:13:05.213Z,10.78
2022-11-05T03:15:49.627Z,10.78
2022-11-05T03:18:26.579Z,10.77
2022-11-05T03:21:00.093Z,10.77
2022-11-05T03:23:32.463Z,10.77
2022-11-05T03:26:06.871Z,10.76
2022-11-05T03:28:42.627Z,10.78
2022-11-05T03:31:14.619Z,10.77
2022-11-05T03:33:45.312Z,10.80
2022-11-05T03:36:20.700Z,10.81
2022-11-05T03:38:53.209Z,10.81
2022-11-05T03:41:23.236Z,10.83
2022-11-05T03:43:55.555Z,10.85
2022-11-05T03:46:29.518Z,10.87
2022-11-05T03:49:02.813Z,10.87
2022-11-05T03:51:39.882Z,10.89
2022-11-05T03:54:08.519Z,10.91
2022-11-05T03:56:41.812Z,10.92
2022-11-05T03:59:12.048Z,10.94
2022-11-05T04:01:40.660Z,10.96
2022-11-05T04:04:10.498Z,10.97
2022-11-05T04:07:07.093Z,11.00
2022-11-05T04:09:52.203Z,11.01
2022-11-05T04:12:37.824Z,11.02
2022-11-05T04:15:06.379Z,11.03
2022-11-05T04:17:33.378Z,11.03
2022-11-05T04:20:20.118Z,11.04
2022-11-05T04:23:05.574Z,11.06
2022-11-05T04:25:33.888Z,11.06
2022-11-05T04:28:01.873Z,11.06
2022-11-05T04:30:28.900Z,11.06
2022-11-05T04:32:58.950Z,11.06
2022-11-05T04:35:29.327Z,11.07
2022-11-05T04:37:57.365Z,11.06
2022-11-05T04:40:25.690Z,11.05
2022-11-05T04:42:55.963Z,11.06
2022-11-05T04:45:24.535Z,11.06
2022-11-05T04:47:52.455Z,11.06
2022-11-05T04:50:21.172Z,11.04
2022-11-05T04:52:50.590Z,11.04
2022-11-05T04:55:18.916Z,11.04
2022-11-05T04:57:49.184Z,11.01
2022-11-05T05:00:17.787Z,11.00
2022-11-05T05:02:45.956Z,11.00
2022-11-05T05:05:14.341Z,10.99
2022-11-05T05:07:43.027Z,10.98
2022-11-05T05:10:13.060Z,10.96
2022-11-05T05:12:41.135Z,10.95
2022-11-05T05:15:10.272Z,10.95
2022-11-05T05:17:38.234Z,10.93
2022-11-05T05:20:23.948Z,10.92
2022-11-05T05:22:55.505Z,10.91
2022-11-05T05:25:24.861Z,10.89
2022-11-05T05:27:53.002Z,10.89
2022-11-05T05:30:20.991Z,10.89
2022-11-05T05:32:48.931Z,10.90
2022-11-05T05:35:17.414Z,10.90
2022-11-05T05:37:45.621Z,10.91
2022-11-05T05:40:13.588Z,10.92
2022-11-05T05:42:43.679Z,10.93
2022-11-05T05:45:12.772Z,10.96
2022-11-05T05:47:40.865Z,10.96
2022-11-05T05:50:09.272Z,10.99
2022-11-05T05:52:37.361Z,11.00
2022-11-05T05:55:05.917Z,11.01
2022-11-05T05:57:34.852Z,11.03
2022-11-05T06:00:04.968Z,11.05
2022-11-05T06:02:33.565Z,11.07
2022-11-05T06:05:01.662Z,11.08
2022-11-05T06:07:34.445Z,11.09
2022-11-05T06:10:05.451Z,11.10
2022-11-05T06:12:33.932Z,11.10
2022-11-05T06:15:03.875Z,11.12
2022-11-05T06:17:31.821Z,11.12
2022-11-05T06:19:59.737Z,11.14
2022-11-05T06:22:27.681Z,11.15
2022-11-05T06:24:55.641Z,11.17
2022-11-05T06:27:23.624Z,11.19
2022-11-05T06:29:51.854Z,11.19
2022-11-05T06:32:21.453Z,11.20
2022-11-05T06:34:49.411Z,11.23
2022-11-05T06:37:17.444Z,11.25
2022-11-05T06:39:45.527Z,11.26
2022-11-05T06:42:18.719Z,11.27
2022-11-05T06:44:47.641Z,11.27
2022-11-05T06:47:15.573Z,11.27
2022-11-05T06:49:44.962Z,11.28
2022-11-05T06:52:13.279Z,11.29
2022-11-05T06:54:42.440Z,11.30
2022-11-05T06:57:11.661Z,11.30
2022-11-05T06:59:40.063Z,11.31
2022-11-05T07:02:08.730Z,11.31
2022-11-05T07:04:36.824Z,11.33
2022-11-05T07:07:06.191Z,11.33
2022-11-05T07:09:34.222Z,11.35
2022-11-05T07:12:02.223Z,11.34
2022-11-05T07:14:30.412Z,11.34
2022-11-05T07:16:58.715Z,11.34
2022-11-05T07:19:26.653Z,11.34
2022-11-05T07:21:54.609Z,11.34
2022-11-05T07:24:23.924Z,11.33
2022-11-05T07:26:51.969Z,11.33
2022-11-05T07:29:19.954Z,11.33
2022-11-05T07:31:48.239Z,11.32
2022-11-05T07:34:16.130Z,11.33
2022-11-05T07:36:44.115Z,11.33
2022-11-05T07:39:12.113Z,11.34
2022-11-05T07:41:41.775Z,11.34
2022-11-05T07:44:10.004Z,11.34
2022-11-05T07:46:37.932Z,11.34
2022-11-05T07:49:06.027Z,11.35
2022-11-05T07:51:34.255Z,11.35
2022-11-05T07:54:02.269Z,11.36
2022-11-05T07:56:30.246Z,11.36
2022-11-05T07:58:59.725Z,11.36
2022-11-05T08:01:27.875Z,11.39
2022-11-05T08:03:56.065Z,11.40
2022-11-05T08:06:24.040Z,11.41
2022-11-05T08:08:52.037Z,11.41
2022-11-05T08:11:20.128Z,11.43
2022-11-05T08:13:48.183Z,11.44
2022-11-05T08:16:18.303Z,11.45
2022-11-05T08:18:47.015Z,11.47
2022-11-05T08:21:15.053Z,11.47
2022-11-05T08:23:43.064Z,11.48
2022-11-05T08:26:11.372Z,11.50
2022-11-05T08:28:39.368Z,11.50
2022-11-05T08:31:07.337Z,11.52
2022-11-05T08:33:37.191Z,11.52
2022-11-05T08:36:06.004Z,11.52
2022-11-05T08:38:34.011Z,11.52
2022-11-05T08:41:02.292Z,11.52
2022-11-05T08:43:30.258Z,11.54
2022-11-05T08:46:01.557Z,11.55
2022-11-05T08:48:29.647Z,11.58
2022-11-05T08:51:01.911Z,11.60
2022-11-05T08:53:30.024Z,11.61
2022-11-05T08:55:59.915Z,11.64
2022-11-05T08:58:27.901Z,11.65
2022-11-05T09:00:59.018Z,11.66
2022-11-05T09:03:29.841Z,11.68
2022-11-05T09:05:59.326Z,11.70
2022-11-05T09:08:27.648Z,11.70
2022-11-05T09:10:55.603Z,11.71
2022-11-05T09:13:23.798Z,11.73
2022-11-05T09:15:52.415Z,11.76
2022-11-05T09:18:21.389Z,11.79
2022-11-05T09:20:49.645Z,11.80
2022-11-05T09:23:19.223Z,11.83
2022-11-05T09:25:47.761Z,11.84
2022-11-05T09:28:20.311Z,11.85
2022-11-05T09:30:50.538Z,11.87
2022-11-05T09:33:19.939Z,11.89
2022-11-05T09:35:48.340Z,11.90
2022-11-05T09:38:16.799Z,11.90
2022-11-05T09:40:53.057Z,11.92
2022-11-05T09:43:31.189Z,11.93
2022-11-05T09:46:04.461Z,11.92
2022-11-05T09:48:36.618Z,11.93
2022-11-05T09:51:20.720Z,11.92
2022-11-05T09:53:51.840Z,11.96
2022-11-05T09:56:25.920Z,11.97
2022-11-05T09:59:00.038Z,11.98
2022-11-05T10:01:32.273Z,11.99
2022-11-05T10:04:03.526Z,12.01
2022-11-05T10:06:31.718Z,12.02
2022-11-05T10:09:04.993Z,12.04
2022-11-05T10:11:39.283Z,12.05
2022-11-05T10:14:15.117Z,12.07
2022-11-05T10:17:03.476Z,12.10
2022-11-05T10:19:40.161Z,12.15
2022-11-05T10:22:13.274Z,12.17
2022-11-05T10:24:44.293Z,12.19
2022-11-05T10:27:18.455Z,12.24
2022-11-05T10:29:47.886Z,12.29
2022-11-05T10:32:23.671Z,12.32
2022-11-05T10:34:53.262Z,12.34
2022-11-05T10:37:23.894Z,12.36
2022-11-05T10:39:52.324Z,12.37
2022-11-05T10:42:48.282Z,12.40
2022-11-05T10:45:30.599Z,12.39
2022-11-05T10:48:15.562Z,12.40
2022-11-05T10:50:45.472Z,12.39
2022-11-05T10:53:17.534Z,12.39
2022-11-05T10:55:48.303Z,12.42
2022-11-05T10:58:23.117Z,12.46
2022-11-05T11:01:08.586Z,12.48
2022-11-05T11:03:42.448Z,12.49
2022-11-05T11:06:26.649Z,12.52
2022-11-05T11:08:57.268Z,12.54
2022-11-05T11:11:33.331Z,12.56
2022-11-05T11:14:19.214Z,12.57
2022-11-05T11:16:50.460Z,12.61
2022-11-05T11:19:32.573Z,12.64
2022-11-05T11:22:15.072Z,12.63
2022-11-05T11:24:45.299Z,12.65
2022-11-05T11:27:16.950Z,12.69
2022-11-05T11:29:51.181Z,12.69
2022-11-05T11:32:21.595Z,12.72
2022-11-05T11:34:53.906Z,12.74
2022-11-05T11:37:26.025Z,12.74
2022-11-05T11:39:58.031Z,12.76
2022-11-05T11:42:31.403Z,12.81
2022-11-05T11:45:05.589Z,12.82
2022-11-05T11:47:34.261Z,12.87
2022-11-05T11:50:03.180Z,12.89
2022-11-05T11:52:33.186Z,12.91
2022-11-05T11:55:22.359Z,12.92
2022-11-05T11:57:52.245Z,12.93
2022-11-05T12:00:27.198Z,12.95
2022-11-05T12:03:10.310Z,12.98
2022-11-05T12:05:45.436Z,13.05
2022-11-05T12:08:36.958Z,13.13
2022-11-05T12:11:11.565Z,13.18
2022-11-05T12:14:04.136Z,13.22
2022-11-05T12:16:50.948Z,13.21
2022-11-05T12:19:40.148Z,13.21
2022-11-05T12:22:15.173Z,13.23
2022-11-05T12:25:10.828Z,13.29
2022-11-05T12:27:55.465Z,13.35
2022-11-05T12:30:24.458Z,13.37
2022-11-05T12:33:16.656Z,13.38
2022-11-05T12:36:03.711Z,13.37
2022-11-05T12:38:47.586Z,13.39
2022-11-05T12:41:24.554Z,13.42
2022-11-05T12:44:05.466Z,13.44
2022-11-05T12:46:39.700Z,13.45
2022-11-05T12:49:37.335Z,13.49
2022-11-05T12:52:24.248Z,13.51
2022-11-05T12:55:03.234Z,13.51
2022-11-05T12:57:35.578Z,13.52
2022-11-05T13:00:08.751Z,13.53
2022-11-05T13:02:43.999Z,13.53
2022-11-05T13:05:19.422Z,13.55
2022-11-05T13:07:54.512Z,13.57
2022-11-05T13:10:29.274Z,13.57
2022-11-05T13:13:06.022Z,13.59
2022-11-05T13:15:40.029Z,13.61
2022-11-05T13:18:14.693Z,13.64
2022-11-05T13:20:50.530Z,13.68
2022-11-05T13:23:26.133Z,13.71
2022-11-05T13:25:59.148Z,13.75
2022-11-05T13:28:36.750Z,13.80
2022-11-05T13:31:07.829Z,13.85
2022-11-05T13:33:39.434Z,13.91
2022-11-05T13:36:30.750Z,13.97
2022-11-05T13:39:09.282Z,14.02
2022-11-05T13:41:52.583Z,14.05
2022-11-05T13:44:37.376Z,14.08
2022-11-05T13:47:25.416Z,14.14
2022-11-05T13:50:34.828Z,14.15
2022-11-05T13:53:31.557Z,14.16
2022-11-05T13:56:14.721Z,14.17
2022-11-05T13:59:02.509Z,14.18
2022-11-05T14:01:44.152Z,14.15
2022-11-05T14:04:20.561Z,14.12
2022-11-05T14:06:48.756Z,14.10
2022-11-05T14:09:22.553Z,14.07
2022-11-05T14:11:55.185Z,14.06
2022-11-05T14:14:25.975Z,14.05
2022-11-05T14:16:56.314Z,14.04
2022-11-05T14:19:37.550Z,13.94
2022-11-05T14:22:37.550Z,13.81
2022-11-05T14:25:38.833Z,13.81
2022-11-05T14:28:31.160Z,13.86
2022-11-05T14:30:59.199Z,13.93
2022-11-05T14:33:38.786Z,14.00
2022-11-05T14:36:31.330Z,13.99
2022-11-05T14:39:14.356Z,13.95
2022-11-05T14:42:00.859Z,13.95
2022-11-05T14:44:31.987Z,13.99
2022-11-05T14:47:02.923Z,14.01
2022-11-05T14:49:35.302Z,14.01
2022-11-05T14:52:09.235Z,14.04
2022-11-05T14:54:43.875Z,14.07
2022-11-05T14:57:14.877Z,14.05
2022-11-05T15:00:02.249Z,14.06
2022-11-05T15:02:35.876Z,14.04
2022-11-05T15:05:39.061Z,14.00
2022-11-05T15:08:47.100Z,14.00
2022-11-05T15:11:21.349Z,13.95
2022-11-05T15:13:59.605Z,13.89
2022-11-05T15:16:34.517Z,13.87
2022-11-05T15:19:04.174Z,13.88
2022-11-05T15:21:36.264Z,13.95
2022-11-05T15:24:05.765Z,14.02
2022-11-05T15:26:42.870Z,14.06
2022-11-05T15:29:19.438Z,14.06
2022-11-05T15:31:49.793Z,14.01
2022-11-05T15:34:22.421Z,13.99
2022-11-05T15:36:53.504Z,14.01
2022-11-05T15:39:39.610Z,14.03
2022-11-05T15:42:14.194Z,14.00
2022-11-05T15:44:44.293Z,13.99
2022-11-05T15:47:20.025Z,14.03
2022-11-05T15:49:50.111Z,14.02
2022-11-05T15:52:22.265Z,14.06
2022-11-05T15:55:18.477Z,14.10
2022-11-05T15:57:51.686Z,14.08
2022-11-05T16:00:22.847Z,13.95
2022-11-05T16:02:55.967Z,13.78
2022-11-05T16:05:26.358Z,13.70
2022-11-05T16:07:55.044Z,13.55
2022-11-05T16:10:26.482Z,13.46
2022-11-05T16:12:54.889Z,13.39
2022-11-05T16:15:25.299Z,13.30
2022-11-05T16:17:57.892Z,13.24
2022-11-05T16:20:32.277Z,13.18
2022-11-05T16:23:01.977Z,13.11
2022-11-05T16:25:33.623Z,13.03
2022-11-05T16:28:02.876Z,12.95
2022-11-05T16:30:30.941Z,12.87
2022-11-05T16:33:07.533Z,12.81
2022-11-05T16:35:41.351Z,12.80
2022-11-05T16:38:14.460Z,12.76
2022-11-05T16:40:42.764Z,12.69
2022-11-05T16:43:18.991Z,12.66
2022-11-05T16:45:47.038Z,12.64
2022-11-05T16:48:18.995Z,12.62
2022-11-05T16:51:05.339Z,12.62
2022-11-05T16:53:33.277Z,12.61
2022-11-05T16:56:01.386Z,12.59
2022-11-05T16:58:29.558Z,12.59
2022-11-05T17:01:04.473Z,12.58
2022-11-05T17:03:34.004Z,12.59
2022-11-05T17:06:01.948Z,12.60
2022-11-05T17:08:30.067Z,12.59
2022-11-05T17:10:58.159Z,12.57
2022-11-05T17:13:26.130Z,12.52
2022-11-05T17:15:54.296Z,12.47
2022-11-05T17:18:22.644Z,12.45
2022-11-05T17:20:55.853Z,12.43
2022-11-05T17:23:28.861Z,12.42
2022-11-05T17:26:01.162Z,12.38
2022-11-05T17:28:30.491Z,12.35
2022-11-05T17:31:00.510Z,12.27
2022-11-05T17:33:28.905Z,12.23
2022-11-05T17:35:58.508Z,12.21
2022-11-05T17:38:28.004Z,12.20
2022-11-05T17:40:56.002Z,12.21
2022-11-05T17:43:24.325Z,12.19
2022-11-05T17:45:53.707Z,12.15
2022-11-05T17:48:22.463Z,12.10
2022-11-05T17:50:51.806Z,12.05
2022-11-05T17:53:21.377Z,12.04
2022-11-05T17:55:49.633Z,12.01
2022-11-05T17:58:17.515Z,11.96
2022-11-05T18:00:46.622Z,11.93
2022-11-05T18:03:15.669Z,11.90
2022-11-05T18:05:44.118Z,11.86
2022-11-05T18:08:37.558Z,11.80
2022-11-05T18:11:05.636Z,11.73
2022-11-05T18:13:33.607Z,11.67
2022-11-05T18:16:01.521Z,11.60
2022-11-05T18:18:29.459Z,11.53
2022-11-05T18:20:58.509Z,11.48
2022-11-05T18:23:26.752Z,11.43
2022-11-05T18:25:56.133Z,11.39
2022-11-05T18:28:24.157Z,11.34
2022-11-05T18:30:52.257Z,11.30
2022-11-05T18:33:20.275Z,11.24
2022-11-05T18:35:48.296Z,11.21
2022-11-05T18:38:16.335Z,11.19
2022-11-05T18:40:44.274Z,11.15
2022-11-05T18:43:14.451Z,11.11
2022-11-05T18:45:42.773Z,11.08
2022-11-05T18:48:11.726Z,11.04
2022-11-05T18:50:40.905Z,11.01
2022-11-05T18:53:08.874Z,10.98
2022-11-05T18:55:39.354Z,10.96
2022-11-05T18:58:07.331Z,10.96
2022-11-05T19:00:36.897Z,10.93
2022-11-05T19:03:05.066Z,10.91
2022-11-05T19:05:33.023Z,10.87
2022-11-05T19:08:01.182Z,10.82
2022-11-05T19:10:29.641Z,10.77
2022-11-05T19:12:57.938Z,10.73
2022-11-05T19:15:25.962Z,10.69
2022-11-05T19:17:55.428Z,10.63
2022-11-05T19:20:23.449Z,10.61
2022-11-05T19:22:51.462Z,10.58
2022-11-05T19:25:20.922Z,10.54
2022-11-05T19:27:49.499Z,10.52
2022-11-05T19:30:17.700Z,10.51
2022-11-05T19:32:45.735Z,10.49
2022-11-05T19:35:15.036Z,10.47
2022-11-05T19:37:43.044Z,10.47
2022-11-05T19:40:12.008Z,10.44
2022-11-05T19:42:40.065Z,10.41
2022-11-05T19:45:30.864Z,10.37
2022-11-05T19:47:57.028Z,10.32
2022-11-05T19:50:27.772Z,10.28
2022-11-05T19:52:55.768Z,10.24
2022-11-05T19:55:23.912Z,10.22
2022-11-05T19:57:52.877Z,10.18
2022-11-05T20:00:20.940Z,10.15
2022-11-05T20:02:48.992Z,10.12
2022-11-05T20:05:18.271Z,10.09
2022-11-05T20:07:52.753Z,10.06
2022-11-05T20:10:21.182Z,10.04
2022-11-05T20:12:49.277Z,10.00
2022-11-05T20:15:19.171Z,9.95
2022-11-05T20:17:51.262Z,9.93
2022-11-05T20:20:20.151Z,9.90
2022-11-05T20:22:49.932Z,9.86
2022-11-05T20:25:18.207Z,9.84
2022-11-05T20:27:46.180Z,9.83
2022-11-05T20:30:14.866Z,9.83
2022-11-05T20:32:42.837Z,9.82
2022-11-05T20:35:11.417Z,9.79
2022-11-05T20:37:39.339Z,9.77
2022-11-05T20:40:10.050Z,9.75
2022-11-05T20:42:38.805Z,9.71
2022-11-05T20:45:07.721Z,9.67
2022-11-05T20:47:35.688Z,9.66
2022-11-05T20:50:04.559Z,9.63
2022-11-05T20:52:32.601Z,9.60
2022-11-05T20:55:01.259Z,9.60
2022-11-05T20:57:30.934Z,9.62
2022-11-05T20:59:59.153Z,9.62
2022-11-05T21:02:27.408Z,9.62
2022-11-05T21:04:55.442Z,9.63
2022-11-05T21:07:23.543Z,9.62
2022-11-05T21:09:51.494Z,9.63
2022-11-05T21:12:21.555Z,9.66
2022-11-05T21:14:51.648Z,9.68
2022-11-05T21:17:19.706Z,9.74
2022-11-05T21:19:47.912Z,9.76
2022-11-05T21:22:16.328Z,9.75
2022-11-05T21:24:44.571Z,9.79
2022-11-05T21:27:12.519Z,9.86
2022-11-05T21:29:40.454Z,9.94
2022-11-05T21:32:09.924Z,10.00
2022-11-05T21:34:37.819Z,10.04
2022-11-05T21:37:06.955Z,10.05
2022-11-05T21:39:35.091Z,10.07
2022-11-05T21:42:03.580Z,10.04
2022-11-05T21:44:31.551Z,10.02
2022-11-05T21:47:00.015Z,10.00
2022-11-05T21:49:29.511Z,9.95
2022-11-05T21:52:15.083Z,9.91
2022-11-05T21:55:00.422Z,9.87
2022-11-05T21:57:45.644Z,9.84
2022-11-05T22:00:17.149Z,9.86
2022-11-05T22:02:45.116Z,9.85
2022-11-05T22:05:14.747Z,9.85
2022-11-05T22:07:42.704Z,9.86
2022-11-05T22:10:16.227Z,9.83
2022-11-05T22:12:44.863Z,9.80
2022-11-05T22:15:13.619Z,9.76
2022-11-05T22:17:46.597Z,9.73
2022-11-05T22:20:16.935Z,9.70
2022-11-05T22:22:45.044Z,9.70
2022-11-05T22:25:13.682Z,9.70
2022-11-05T22:27:41.731Z,9.71
2022-11-05T22:30:11.008Z,9.70
2022-11-05T22:32:39.681Z,9.67
2022-11-05T22:35:09.033Z,9.64
2022-11-05T22:37:38.459Z,9.59
2022-11-05T22:40:07.602Z,9.55
2022-11-05T22:42:35.595Z,9.51
2022-11-05T22:45:03.564Z,9.50
2022-11-05T22:47:31.551Z,9.46
2022-11-05T22:49:59.556Z,9.42
2022-11-05T22:52:27.568Z,9.41
2022-11-05T22:54:56.939Z,9.40
2022-11-05T22:57:24.917Z,9.36
2022-11-05T22:59:52.857Z,9.35
2022-11-05T23:02:20.835Z,9.34
2022-11-05T23:04:49.582Z,9.32
2022-11-05T23:07:36.543Z,9.31
2022-11-05T23:10:23.884Z,9.29
2022-11-05T23:12:53.210Z,9.27
2022-11-05T23:15:35.007Z,9.26
2022-11-05T23:18:20.847Z,9.25
2022-11-05T23:21:05.893Z,9.24
2022-11-05T23:23:50.988Z,9.23
2022-11-05T23:26:37.415Z,9.23
2022-11-05T23:29:05.514Z,9.25
2022-11-05T23:31:50.675Z,9.30
2022-11-05T23:34:18.604Z,9.33
2022-11-05T23:37:03.814Z,9.35
2022-11-05T23:39:31.751Z,9.35
2022-11-05T23:42:18.164Z,9.36
2022-11-05T23:45:09.252Z,9.38
2022-11-05T23:47:58.753Z,9.37
2022-11-05T23:50:27.455Z,9.34
2022-11-05T23:52:55.658Z,9.31
2022-11-05T23:55:24.732Z,9.29
2022-11-05T23:57:54.439Z,9.25
